Time;durP1;ratioP1;P1;durP2;ratioP2;P2;SDS_P1;SDS_P2;PMS_P1;PMS_P2;Temp;Humidity;BMP_temperature;BMP_pressure;BME280_temperature;BME280_humidity;BME280_pressure;Samples;Min_cycle;Max_cycle;Signal;HPM_P1;HPM_P2
2023/03/12 00:02:18;;;;;;;4.87;3.47;;;;;;;;;;5106021;28;20294;-31
2023/03/12 00:04:45;;;;;;;4.57;3.37;;;;;;;;;;5112097;28;20204;-28
2023/03/12 00:07:12;;;;;;;6.90;3.50;;;;;;;;;;5109485;28;20234;-30
2023/03/12 00:09:39;;;;;;;4.50;3.10;;;;;;;;;;5092290;28;20205;-28
2023/03/12 00:12:07;;;;;;;3.63;3.33;;;;;;;;;;5099514;28;20196;-30
2023/03/12 00:14:34;;;;;;;5.27;3.47;;;;;;;;;;5084578;28;20495;-28
2023/03/12 00:17:03;;;;;;;5.57;3.23;;;;;;;;;;5105590;28;20227;-29
2023/03/12 00:19:30;;;;;;;5.13;3.20;;;;;;;;;;5095468;28;20212;-29
2023/03/12 00:21:57;;;;;;;4.57;3.53;;;;;;;;;;5088985;28;20215;-29
2023/03/12 00:24:24;;;;;;;6.13;3.57;;;;;;;;;;5098904;28;20200;-30
2023/03/12 00:26:51;;;;;;;6.87;3.20;;;;;;;;;;5101529;28;20224;-29
2023/03/12 00:29:18;;;;;;;5.13;3.10;;;;;;;;;;5082719;28;20212;-32
2023/03/12 00:31:46;;;;;;;7.03;3.60;;;;;;;;;;5104730;28;20215;-32
2023/03/12 00:34:14;;;;;;;4.73;3.47;;;;;;;;;;5110800;28;20296;-30
2023/03/12 00:36:42;;;;;;;3.60;3.30;;;;;;;;;;5115407;28;20357;-27
2023/03/12 00:39:09;;;;;;;5.50;3.30;;;;;;;;;;5100866;28;20204;-32
2023/03/12 00:41:36;;;;;;;7.10;3.70;;;;;;;;;;5092566;28;20208;-32
2023/03/12 00:44:03;;;;;;;5.30;3.50;;;;;;;;;;5090350;28;20208;-33
2023/03/12 00:46:30;;;;;;;10.77;3.73;;;;;;;;;;5090746;28;20225;-33
2023/03/12 00:48:57;;;;;;;6.13;3.23;;;;;;;;;;5104175;28;20569;-33
2023/03/12 00:51:26;;;;;;;3.73;3.10;;;;;;;;;;5111136;28;20203;-30
2023/03/12 00:53:54;;;;;;;5.93;3.63;;;;;;;;;;5098281;28;20211;-32
2023/03/12 00:56:21;;;;;;;7.13;3.43;;;;;;;;;;5095012;28;20330;-34
2023/03/12 00:58:49;;;;;;;3.80;2.90;;;;;;;;;;5097203;28;20193;-33
2023/03/12 01:01:16;;;;;;;3.77;3.07;;;;;;;;;;5096119;28;20208;-33
2023/03/12 01:03:43;;;;;;;7.07;3.57;;;;;;;;;;5098050;28;20205;-31
2023/03/12 01:06:10;;;;;;;7.50;3.23;;;;;;;;;;5090020;28;20208;-31
2023/03/12 01:08:39;;;;;;;4.40;3.50;;;;;;;;;;5089028;28;20204;-30
2023/03/12 01:11:06;;;;;;;4.30;3.00;;;;;;;;;;5098230;28;20204;-31
2023/03/12 01:13:33;;;;;;;5.07;3.17;;;;;;;;;;5084719;28;20563;-32
2023/03/12 01:16:00;;;;;;;5.37;3.10;;;;;;;;;;5089258;28;20238;-28
2023/03/12 01:18:27;;;;;;;4.33;2.50;;;;;;;;;;5089534;28;20709;-30
2023/03/12 01:20:54;;;;;;;5.67;3.17;;;;;;;;;;5089835;28;20204;-30
2023/03/12 01:23:22;;;;;;;5.50;3.47;;;;;;;;;;5081761;28;20228;-31
2023/03/12 01:25:50;;;;;;;4.93;2.67;;;;;;;;;;5100628;28;20216;-32
2023/03/12 01:28:17;;;;;;;6.17;3.30;;;;;;;;;;5101314;28;20238;-31
2023/03/12 01:30:45;;;;;;;4.57;3.07;;;;;;;;;;5086858;28;20404;-34
2023/03/12 01:33:12;;;;;;;6.80;3.87;;;;;;;;;;5089695;28;20221;-29
2023/03/12 01:35:39;;;;;;;4.63;3.47;;;;;;;;;;5090070;28;20235;-30
2023/03/12 01:38:06;;;;;;;5.03;3.13;;;;;;;;;;5089682;28;20219;-31
2023/03/12 01:40:34;;;;;;;4.37;3.00;;;;;;;;;;5087172;28;20206;-31
2023/03/12 01:43:22;;;;;;;4.43;2.53;;;;;;;;;;5087072;28;20212;-29
2023/03/12 01:46:12;;;;;;;3.93;2.53;;;;;;;;;;5077850;28;20212;-33
2023/03/12 01:48:41;;;;;;;4.40;2.73;;;;;;;;;;5064777;28;20200;-31
2023/03/12 01:51:09;;;;;;;5.07;3.00;;;;;;;;;;5090376;28;20212;-26
2023/03/12 01:53:37;;;;;;;4.00;2.87;;;;;;;;;;5079706;28;20204;-31
2023/03/12 01:56:05;;;;;;;4.57;2.63;;;;;;;;;;5083590;28;20715;-30
2023/03/12 01:58:35;;;;;;;5.13;3.47;;;;;;;;;;5096212;28;20199;-30
2023/03/12 02:01:02;;;;;;;6.57;3.93;;;;;;;;;;5088725;28;20204;-33
2023/03/12 02:03:29;;;;;;;5.03;3.17;;;;;;;;;;5089340;28;20418;-28
2023/03/12 02:05:58;;;;;;;4.20;3.10;;;;;;;;;;5101346;28;20226;-28
2023/03/12 02:08:26;;;;;;;5.50;3.33;;;;;;;;;;5109941;28;20646;-30
2023/03/12 02:10:53;;;;;;;5.00;3.17;;;;;;;;;;5097937;28;20260;-29
2023/03/12 02:13:21;;;;;;;3.43;2.77;;;;;;;;;;5087022;28;20194;-31
2023/03/12 02:15:49;;;;;;;3.90;2.63;;;;;;;;;;5089374;28;20717;-32
2023/03/12 02:18:18;;;;;;;5.37;3.00;;;;;;;;;;5109224;28;20216;-32
2023/03/12 02:20:49;;;;;;;3.80;2.63;;;;;;;;;;5113671;28;20669;-30
2023/03/12 02:23:19;;;;;;;5.07;3.30;;;;;;;;;;5093525;28;20208;-29
2023/03/12 02:25:50;;;;;;;4.10;3.17;;;;;;;;;;5101703;28;20205;-34
2023/03/12 02:28:18;;;;;;;4.47;3.07;;;;;;;;;;5101637;28;20217;-31
2023/03/12 02:30:47;;;;;;;8.13;3.50;;;;;;;;;;5084826;28;20201;-29
2023/03/12 02:33:14;;;;;;;5.37;3.63;;;;;;;;;;5093280;28;20205;-29
2023/03/12 02:35:42;;;;;;;3.80;2.87;;;;;;;;;;5093304;28;20228;-32
2023/03/12 02:38:24;;;;;;;11.10;3.63;;;;;;;;;;5086971;28;20295;-31
2023/03/12 02:40:53;;;;;;;8.90;3.07;;;;;;;;;;5077362;28;20219;-30
2023/03/12 02:43:21;;;;;;;4.63;3.33;;;;;;;;;;5088110;28;20201;-32
2023/03/12 02:45:48;;;;;;;4.07;2.53;;;;;;;;;;5084423;28;20408;-30
2023/03/12 02:48:15;;;;;;;3.93;2.93;;;;;;;;;;5107966;28;20689;-29
2023/03/12 02:50:42;;;;;;;3.80;3.27;;;;;;;;;;5113357;28;20214;-29
2023/03/12 02:53:09;;;;;;;2.90;2.60;;;;;;;;;;5096234;28;20205;-29
2023/03/12 02:55:36;;;;;;;4.47;3.10;;;;;;;;;;5091022;28;20232;-28
2023/03/12 02:58:05;;;;;;;5.10;3.20;;;;;;;;;;5090640;28;20224;-28
2023/03/12 03:00:33;;;;;;;4.40;3.03;;;;;;;;;;5091953;28;20243;-30
2023/03/12 03:03:00;;;;;;;2.90;2.57;;;;;;;;;;5097404;28;20232;-32
2023/03/12 03:05:27;;;;;;;4.10;3.33;;;;;;;;;;5112892;28;20211;-33
2023/03/12 03:07:55;;;;;;;4.70;3.17;;;;;;;;;;5106483;28;20246;-29
2023/03/12 03:10:22;;;;;;;5.10;3.43;;;;;;;;;;5082745;28;20217;-30
2023/03/12 03:12:50;;;;;;;6.07;3.03;;;;;;;;;;5108550;28;20204;-31
2023/03/12 03:15:18;;;;;;;4.63;2.83;;;;;;;;;;5086248;28;20690;-32
2023/03/12 03:17:45;;;;;;;3.77;3.13;;;;;;;;;;5092071;28;20228;-30
2023/03/12 03:20:13;;;;;;;3.63;3.17;;;;;;;;;;5092007;28;20676;-30
2023/03/12 03:22:40;;;;;;;3.63;3.00;;;;;;;;;;5092096;28;20232;-28
2023/03/12 03:25:09;;;;;;;5.27;3.50;;;;;;;;;;5098158;28;20208;-31
2023/03/12 03:27:37;;;;;;;5.77;2.97;;;;;;;;;;5091637;28;20227;-30
2023/03/12 03:30:05;;;;;;;2.60;2.40;;;;;;;;;;5081279;28;20220;-29
2023/03/12 03:32:33;;;;;;;5.70;3.13;;;;;;;;;;5109975;28;20230;-30
2023/03/12 03:35:01;;;;;;;3.00;2.70;;;;;;;;;;5112466;28;20208;-31
2023/03/12 03:37:28;;;;;;;5.47;3.87;;;;;;;;;;5091561;28;20229;-32
2023/03/12 03:39:55;;;;;;;4.27;3.13;;;;;;;;;;5094659;28;20212;-32
2023/03/12 03:42:22;;;;;;;4.63;3.00;;;;;;;;;;5091680;28;20286;-32
2023/03/12 03:44:49;;;;;;;3.70;3.03;;;;;;;;;;5085189;28;20583;-32
2023/03/12 03:47:16;;;;;;;4.63;2.97;;;;;;;;;;5106011;28;20238;-30
2023/03/12 03:49:45;;;;;;;4.50;3.10;;;;;;;;;;5111956;28;20200;-30
2023/03/12 03:52:12;;;;;;;5.03;3.50;;;;;;;;;;5112316;28;20212;-29
2023/03/12 03:54:39;;;;;;;3.87;2.97;;;;;;;;;;5077360;28;20205;-29
2023/03/12 03:57:06;;;;;;;3.27;2.60;;;;;;;;;;5099834;28;20232;-31
2023/03/12 03:59:33;;;;;;;3.40;2.60;;;;;;;;;;5085623;28;20666;-32
2023/03/12 04:02:01;;;;;;;4.03;2.63;;;;;;;;;;5096667;28;20207;-29
2023/03/12 04:04:30;;;;;;;3.83;2.67;;;;;;;;;;5109257;28;20450;-28
2023/03/12 04:06:58;;;;;;;3.30;2.73;;;;;;;;;;5167495;22;20323;-30
2023/03/12 04:09:25;;;;;;;4.97;2.97;;;;;;;;;;5087291;28;20209;-29
2023/03/12 04:11:53;;;;;;;8.17;3.43;;;;;;;;;;5099399;28;20204;-33
2023/03/12 04:14:20;;;;;;;5.77;4.10;;;;;;;;;;5083515;28;20288;-31
2023/03/12 04:16:47;;;;;;;6.13;3.37;;;;;;;;;;5091988;28;20318;-30
2023/03/12 04:19:14;;;;;;;3.80;2.87;;;;;;;;;;5084445;28;20216;-30
2023/03/12 04:21:41;;;;;;;3.97;2.60;;;;;;;;;;5099497;28;20223;-33
2023/03/12 04:24:14;;;;;;;7.83;3.37;;;;;;;;;;5090616;28;20215;-29
2023/03/12 04:26:41;;;;;;;4.70;3.13;;;;;;;;;;5083453;28;20220;-33
2023/03/12 04:29:08;;;;;;;4.20;2.80;;;;;;;;;;5077919;28;20219;-30
2023/03/12 04:31:36;;;;;;;4.47;3.00;;;;;;;;;;5100878;28;20208;-29
2023/03/12 04:34:03;;;;;;;3.70;3.00;;;;;;;;;;5090011;28;20205;-29
2023/03/12 04:36:30;;;;;;;6.50;2.77;;;;;;;;;;5086442;28;20232;-31
2023/03/12 04:38:57;;;;;;;4.27;2.80;;;;;;;;;;5075148;28;20216;-36
2023/03/12 04:41:26;;;;;;;3.73;2.97;;;;;;;;;;5098954;28;20231;-31
2023/03/12 04:43:53;;;;;;;3.50;2.63;;;;;;;;;;5096289;28;20216;-32
2023/03/12 04:46:20;;;;;;;4.50;3.17;;;;;;;;;;5096794;28;20216;-30
2023/03/12 04:48:47;;;;;;;4.37;3.13;;;;;;;;;;5095293;28;20217;-31
2023/03/12 04:51:14;;;;;;;4.07;2.73;;;;;;;;;;5090299;28;20200;-32
2023/03/12 04:53:41;;;;;;;7.73;3.07;;;;;;;;;;5087034;28;20212;-35
2023/03/12 04:56:08;;;;;;;6.23;3.00;;;;;;;;;;5092005;28;20228;-27
2023/03/12 04:58:37;;;;;;;5.47;3.00;;;;;;;;;;5084318;28;20247;-33
2023/03/12 05:01:05;;;;;;;4.67;3.13;;;;;;;;;;5092135;28;20211;-32
2023/03/12 05:03:32;;;;;;;6.73;3.03;;;;;;;;;;5110063;28;20214;-32
2023/03/12 05:05:59;;;;;;;3.47;2.70;;;;;;;;;;5110596;28;20214;-31
2023/03/12 05:08:27;;;;;;;4.53;2.97;;;;;;;;;;5095587;28;20210;-29
2023/03/12 05:10:54;;;;;;;4.07;3.47;;;;;;;;;;5087390;28;20204;-29
2023/03/12 05:13:22;;;;;;;4.43;2.80;;;;;;;;;;5096244;28;20206;-31
2023/03/12 05:15:52;;;;;;;4.10;2.80;;;;;;;;;;5083731;28;20220;-33
2023/03/12 05:18:20;;;;;;;8.40;2.80;;;;;;;;;;5091005;28;20235;-27
2023/03/12 05:20:47;;;;;;;6.20;2.60;;;;;;;;;;5089631;28;20208;-31
2023/03/12 05:23:14;;;;;;;3.13;2.80;;;;;;;;;;5081959;28;20295;-28
2023/03/12 05:25:41;;;;;;;5.30;2.77;;;;;;;;;;5100184;28;20201;-31
2023/03/12 05:28:08;;;;;;;4.60;3.20;;;;;;;;;;5101183;28;20226;-32
2023/03/12 05:30:35;;;;;;;3.67;2.70;;;;;;;;;;5086342;28;20216;-36
2023/03/12 05:33:04;;;;;;;7.43;3.10;;;;;;;;;;5103719;28;20209;-32
2023/03/12 05:35:31;;;;;;;4.80;2.60;;;;;;;;;;5089602;28;20276;-31
2023/03/12 05:37:58;;;;;;;4.03;2.67;;;;;;;;;;5083576;28;20231;-30
2023/03/12 05:40:25;;;;;;;3.03;2.57;;;;;;;;;;5101031;28;20210;-32
2023/03/12 05:42:53;;;;;;;3.07;2.77;;;;;;;;;;5100721;28;20210;-34
2023/03/12 05:45:20;;;;;;;4.70;2.83;;;;;;;;;;5078933;28;20213;-33
2023/03/12 05:47:47;;;;;;;2.87;2.60;;;;;;;;;;5085961;28;20223;-31
2023/03/12 05:50:16;;;;;;;3.00;2.30;;;;;;;;;;5088866;28;20205;-29
2023/03/12 05:52:43;;;;;;;5.07;3.10;;;;;;;;;;5084253;28;20306;-30
2023/03/12 05:55:10;;;;;;;4.87;3.30;;;;;;;;;;5092298;28;20210;-31
2023/03/12 05:57:37;;;;;;;8.20;3.47;;;;;;;;;;5101399;28;20224;-26
2023/03/12 06:00:05;;;;;;;2.90;2.60;;;;;;;;;;5088084;28;20204;-30
2023/03/12 06:02:32;;;;;;;3.50;2.43;;;;;;;;;;5091422;28;20204;-32
2023/03/12 06:04:59;;;;;;;4.77;2.90;;;;;;;;;;5091900;28;20209;-32
2023/03/12 06:07:28;;;;;;;4.40;2.57;;;;;;;;;;5085418;28;20240;-32
2023/03/12 06:09:55;;;;;;;5.97;3.10;;;;;;;;;;5079867;28;20208;-33
2023/03/12 06:12:22;;;;;;;6.37;2.90;;;;;;;;;;5109646;28;20215;-34
2023/03/12 06:14:49;;;;;;;3.77;3.17;;;;;;;;;;5079111;28;20215;-31
2023/03/12 06:17:16;;;;;;;3.87;2.67;;;;;;;;;;5099958;28;20235;-31
2023/03/12 06:19:43;;;;;;;3.70;2.93;;;;;;;;;;5090160;28;20299;-37
2023/03/12 06:22:10;;;;;;;4.20;3.07;;;;;;;;;;5082154;28;20300;-30
2023/03/12 06:24:41;;;;;;;4.87;3.20;;;;;;;;;;5091221;28;20208;-33
2023/03/12 06:27:08;;;;;;;4.43;3.17;;;;;;;;;;5111924;28;20216;-27
2023/03/12 06:29:35;;;;;;;5.33;3.00;;;;;;;;;;5091450;28;20201;-25
2023/03/12 06:32:02;;;;;;;4.53;2.80;;;;;;;;;;5088168;28;20223;-36
2023/03/12 06:34:29;;;;;;;6.33;3.03;;;;;;;;;;5109550;28;20196;-34
2023/03/12 06:36:57;;;;;;;3.93;2.77;;;;;;;;;;5098686;28;20229;-33
2023/03/12 06:39:24;;;;;;;3.43;3.13;;;;;;;;;;5096649;28;20292;-30
2023/03/12 06:41:52;;;;;;;4.40;3.33;;;;;;;;;;5104127;28;20215;-26
2023/03/12 06:44:19;;;;;;;3.47;2.90;;;;;;;;;;5086176;28;20217;-31
2023/03/12 06:46:46;;;;;;;5.03;3.17;;;;;;;;;;5090908;28;20225;-35
2023/03/12 06:49:14;;;;;;;4.50;2.80;;;;;;;;;;5090942;28;20207;-35
2023/03/12 06:51:41;;;;;;;2.97;2.70;;;;;;;;;;5087035;28;20235;-34
2023/03/12 06:54:08;;;;;;;5.10;3.27;;;;;;;;;;5087956;28;20208;-32
2023/03/12 06:56:35;;;;;;;3.27;2.97;;;;;;;;;;5110066;28;20232;-29
2023/03/12 06:59:04;;;;;;;5.00;3.07;;;;;;;;;;5093879;28;20209;-34
2023/03/12 07:01:31;;;;;;;3.77;2.73;;;;;;;;;;5087212;28;20200;-30
2023/03/12 07:03:58;;;;;;;5.63;3.00;;;;;;;;;;5108297;28;20210;-32
2023/03/12 07:06:26;;;;;;;5.63;3.03;;;;;;;;;;5109851;28;20237;-32
2023/03/12 07:08:53;;;;;;;5.67;3.27;;;;;;;;;;5091709;28;20203;-28
2023/03/12 07:11:20;;;;;;;4.27;2.70;;;;;;;;;;5104586;28;20200;-34
2023/03/12 07:13:47;;;;;;;4.17;2.90;;;;;;;;;;5101305;28;20203;-30
2023/03/12 07:16:15;;;;;;;5.93;2.80;;;;;;;;;;5097749;28;20196;-26
2023/03/12 07:18:42;;;;;;;4.63;3.00;;;;;;;;;;5099081;28;20205;-34
2023/03/12 07:21:09;;;;;;;4.20;2.63;;;;;;;;;;5094609;28;20201;-30
2023/03/12 07:23:37;;;;;;;4.27;3.13;;;;;;;;;;5090616;28;20213;-27
2023/03/12 07:26:04;;;;;;;3.67;2.90;;;;;;;;;;5088808;28;20215;-33
2023/03/12 07:28:32;;;;;;;4.80;3.07;;;;;;;;;;5102920;28;20218;-28
2023/03/12 07:31:02;;;;;;;3.53;3.07;;;;;;;;;;5091223;28;20207;-31
2023/03/12 07:33:30;;;;;;;3.63;3.20;;;;;;;;;;5103560;28;20211;-30
2023/03/12 07:35:57;;;;;;;3.53;3.00;;;;;;;;;;5114631;28;20204;-35
2023/03/12 07:38:25;;;;;;;3.40;3.10;;;;;;;;;;5095057;28;20224;-28
2023/03/12 07:40:52;;;;;;;4.00;2.83;;;;;;;;;;5100143;28;20208;-32
2023/03/12 07:43:19;;;;;;;3.77;2.90;;;;;;;;;;5095000;28;20479;-31
2023/03/12 07:45:53;;;;;;;5.77;3.80;;;;;;;;;;5093293;28;20196;-30
2023/03/12 07:48:20;;;;;;;6.37;3.73;;;;;;;;;;5106166;28;20220;-34
2023/03/12 07:50:49;;;;;;;6.57;3.73;;;;;;;;;;5094440;28;20208;-31
2023/03/12 07:53:16;;;;;;;4.53;4.07;;;;;;;;;;5085707;28;20209;-34
2023/03/12 07:55:44;;;;;;;6.17;3.73;;;;;;;;;;5094824;28;20534;-30
2023/03/12 07:58:12;;;;;;;7.77;3.73;;;;;;;;;;5109072;28;20223;-31
2023/03/12 08:00:39;;;;;;;5.30;3.50;;;;;;;;;;5087882;28;20205;-33
2023/03/12 08:03:06;;;;;;;5.00;3.47;;;;;;;;;;5099063;28;20196;-30
2023/03/12 08:05:33;;;;;;;5.03;3.20;;;;;;;;;;5114776;28;20204;-27
2023/03/12 08:08:02;;;;;;;7.13;3.83;;;;;;;;;;5103052;28;20264;-32
2023/03/12 08:10:29;;;;;;;5.87;4.67;;;;;;;;;;5083726;28;20212;-33
2023/03/12 08:12:56;;;;;;;9.73;5.30;;;;;;;;;;5111986;28;20207;-33
2023/03/12 08:15:24;;;;;;;13.53;5.77;;;;;;;;;;5085437;28;20201;-31
2023/03/12 08:17:51;;;;;;;10.40;6.80;;;;;;;;;;5106592;28;20311;-33
2023/03/12 08:20:18;;;;;;;6.07;4.73;;;;;;;;;;5088285;28;20207;-29
2023/03/12 08:22:45;;;;;;;6.43;4.20;;;;;;;;;;5086542;28;20208;-30
2023/03/12 08:25:14;;;;;;;5.00;4.03;;;;;;;;;;5084903;28;20213;-31
2023/03/12 08:27:42;;;;;;;5.93;3.83;;;;;;;;;;5097640;28;20244;-32
2023/03/12 08:30:09;;;;;;;5.07;4.00;;;;;;;;;;5081438;28;20205;-28
2023/03/12 08:32:37;;;;;;;6.63;4.40;;;;;;;;;;5088006;28;20203;-32
2023/03/12 08:35:04;;;;;;;3.53;3.17;;;;;;;;;;5107258;28;20204;-30
2023/03/12 08:37:31;;;;;;;4.90;3.70;;;;;;;;;;5108648;28;20231;-31
2023/03/12 08:39:59;;;;;;;7.23;3.70;;;;;;;;;;5094873;28;20204;-28
2023/03/12 08:42:27;;;;;;;5.37;3.80;;;;;;;;;;5109593;28;20207;-33
2023/03/12 08:44:54;;;;;;;5.53;3.20;;;;;;;;;;5086268;28;20219;-36
2023/03/12 08:47:21;;;;;;;6.23;4.37;;;;;;;;;;5092658;28;20220;-34
2023/03/12 08:49:49;;;;;;;6.40;3.83;;;;;;;;;;5093128;28;20204;-37
2023/03/12 08:52:16;;;;;;;7.30;3.60;;;;;;;;;;5093063;28;20205;-31
2023/03/12 08:54:43;;;;;;;4.87;3.87;;;;;;;;;;5095826;28;20209;-36
2023/03/12 08:57:10;;;;;;;8.80;4.57;;;;;;;;;;5094124;28;20224;-31
2023/03/12 08:59:39;;;;;;;5.83;3.73;;;;;;;;;;5084737;28;20208;-34
2023/03/12 09:02:06;;;;;;;8.23;3.30;;;;;;;;;;5103859;28;20215;-32
2023/03/12 09:04:33;;;;;;;4.90;3.20;;;;;;;;;;5112795;28;20199;-36
2023/03/12 09:07:01;;;;;;;9.50;6.47;;;;;;;;;;5089361;28;20237;-34
2023/03/12 09:09:28;;;;;;;5.80;4.43;;;;;;;;;;5089593;28;20204;-34
2023/03/12 09:11:55;;;;;;;5.73;3.93;;;;;;;;;;5092667;28;20230;-33
2023/03/12 09:14:22;;;;;;;7.07;4.60;;;;;;;;;;5081568;28;20205;-32
2023/03/12 09:16:51;;;;;;;5.43;3.77;;;;;;;;;;5096474;28;20231;-36
2023/03/12 09:19:19;;;;;;;5.90;4.37;;;;;;;;;;5096586;28;20205;-33
2023/03/12 09:21:46;;;;;;;5.60;3.93;;;;;;;;;;5092778;28;20295;-35
2023/03/12 09:24:13;;;;;;;5.47;4.30;;;;;;;;;;5087571;28;20215;-29
2023/03/12 09:26:40;;;;;;;8.17;4.47;;;;;;;;;;5111388;28;20224;-32
2023/03/12 09:29:07;;;;;;;9.43;4.13;;;;;;;;;;5096391;28;20622;-31
2023/03/12 09:31:35;;;;;;;6.27;4.50;;;;;;;;;;5102503;28;20204;-33
2023/03/12 09:34:04;;;;;;;7.47;4.53;;;;;;;;;;5098966;28;20205;-36
2023/03/12 09:36:32;;;;;;;7.73;4.60;;;;;;;;;;5089859;28;20327;-34
2023/03/12 09:38:59;;;;;;;6.73;4.17;;;;;;;;;;5086335;28;20228;-32
2023/03/12 09:41:28;;;;;;;6.33;4.70;;;;;;;;;;5101251;28;20208;-36
2023/03/12 09:43:58;;;;;;;8.67;4.50;;;;;;;;;;5083548;28;20201;-28
2023/03/12 09:46:27;;;;;;;6.50;4.80;;;;;;;;;;5098105;28;20234;-32
2023/03/12 09:48:57;;;;;;;7.00;4.67;;;;;;;;;;5100165;28;20211;-35
2023/03/12 09:51:29;;;;;;;6.40;4.97;;;;;;;;;;5093265;28;20193;-30
2023/03/12 09:53:57;;;;;;;9.80;4.67;;;;;;;;;;5083262;28;20212;-35
2023/03/12 09:56:25;;;;;;;10.50;4.43;;;;;;;;;;5106501;28;20220;-34
2023/03/12 09:58:53;;;;;;;7.27;5.00;;;;;;;;;;5100961;28;20220;-35
2023/03/12 10:01:27;;;;;;;6.37;5.10;;;;;;;;;;5101037;28;20214;-35
2023/03/12 10:04:05;;;;;;;6.77;5.20;;;;;;;;;;5086134;28;20221;-38
2023/03/12 10:09:07;;;;;;;5.23;4.33;;;;;;;;;;5050198;28;20230;-27
2023/03/12 10:11:43;;;;;;;6.23;5.03;;;;;;;;;;5067794;28;20204;-31
2023/03/12 10:14:26;;;;;;;6.03;4.40;;;;;;;;;;5061489;28;20213;-34
2023/03/12 10:17:00;;;;;;;7.97;4.57;;;;;;;;;;5064668;28;20229;-31
2023/03/12 10:19:43;;;;;;;6.27;4.67;;;;;;;;;;5070425;28;20225;-31
2023/03/12 10:22:16;;;;;;;7.43;5.27;;;;;;;;;;5071740;28;20205;-34
2023/03/12 10:24:51;;;;;;;7.87;4.87;;;;;;;;;;5067126;28;20209;-31
2023/03/12 10:27:18;;;;;;;7.23;5.13;;;;;;;;;;5064262;28;20228;-32
2023/03/12 10:29:47;;;;;;;7.03;5.03;;;;;;;;;;5057336;28;20304;-31
2023/03/12 10:32:16;;;;;;;7.07;4.67;;;;;;;;;;5068215;28;20201;-30
2023/03/12 10:34:44;;;;;;;7.33;5.13;;;;;;;;;;5072193;28;20205;-31
2023/03/12 10:37:16;;;;;;;6.63;4.33;;;;;;;;;;5072783;28;20237;-33
2023/03/12 10:39:44;;;;;;;8.10;4.90;;;;;;;;;;5071007;28;20239;-35
2023/03/12 10:42:17;;;;;;;6.63;5.87;;;;;;;;;;5072385;28;20213;-31
2023/03/12 10:44:44;;;;;;;6.87;5.30;;;;;;;;;;5063139;28;20401;-30
2023/03/12 10:47:19;;;;;;;8.83;6.50;;;;;;;;;;5073080;28;20233;-31
2023/03/12 10:49:49;;;;;;;6.40;5.33;;;;;;;;;;5072549;28;20209;-30
2023/03/12 10:52:17;;;;;;;12.23;6.40;;;;;;;;;;5070843;28;20211;-28
2023/03/12 10:54:45;;;;;;;6.87;5.57;;;;;;;;;;5067536;28;20198;-32
2023/03/12 10:57:14;;;;;;;6.43;4.87;;;;;;;;;;5072046;28;20245;-31
2023/03/12 10:59:44;;;;;;;6.87;5.83;;;;;;;;;;5068891;28;20229;-32
2023/03/12 11:02:30;;;;;;;8.23;5.63;;;;;;;;;;5069654;28;20288;-30
2023/03/12 11:04:58;;;;;;;7.93;6.10;;;;;;;;;;5067989;28;20217;-30
2023/03/12 11:07:28;;;;;;;7.47;5.80;;;;;;;;;;5072067;28;20714;-31
2023/03/12 11:10:19;;;;;;;11.97;6.67;;;;;;;;;;5067392;28;20213;-32
2023/03/12 11:12:53;;;;;;;7.70;5.70;;;;;;;;;;5054399;28;20667;-28
2023/03/12 11:15:25;;;;;;;8.03;5.23;;;;;;;;;;5061149;28;20209;-33
2023/03/12 11:17:52;;;;;;;7.50;5.57;;;;;;;;;;5065089;28;20263;-35
2023/03/12 11:20:26;;;;;;;9.33;5.67;;;;;;;;;;5067707;28;20205;-29
2023/03/12 11:22:53;;;;;;;7.53;5.43;;;;;;;;;;5065497;28;20208;-35
2023/03/12 11:25:22;;;;;;;7.17;4.33;;;;;;;;;;5061035;28;20209;-34
2023/03/12 11:27:51;;;;;;;7.87;5.43;;;;;;;;;;5071900;28;20516;-29
2023/03/12 11:30:22;;;;;;;5.60;5.00;;;;;;;;;;5066921;28;20202;-30
2023/03/12 11:32:51;;;;;;;6.13;4.80;;;;;;;;;;5066287;28;20228;-30
2023/03/12 11:35:21;;;;;;;7.13;4.73;;;;;;;;;;5071785;28;20209;-31
2023/03/12 11:37:56;;;;;;;9.17;5.13;;;;;;;;;;5063015;28;20227;-31
2023/03/12 11:40:29;;;;;;;8.03;5.43;;;;;;;;;;5068028;28;20209;-32
2023/03/12 11:43:08;;;;;;;8.00;5.70;;;;;;;;;;5067608;28;20309;-30
2023/03/12 11:45:40;;;;;;;7.03;5.43;;;;;;;;;;5068799;28;20205;-29
2023/03/12 11:48:15;;;;;;;6.60;5.40;;;;;;;;;;5071098;28;20225;-29
2023/03/12 11:50:48;;;;;;;7.13;4.70;;;;;;;;;;5070182;28;20209;-29
2023/03/12 11:53:23;;;;;;;8.43;5.63;;;;;;;;;;5060795;28;20208;-35
2023/03/12 11:55:55;;;;;;;10.73;5.67;;;;;;;;;;5071283;28;20200;-29
2023/03/12 11:58:40;;;;;;;8.10;5.60;;;;;;;;;;5067338;28;20431;-31
2023/03/12 12:01:10;;;;;;;33.37;21.40;;;;;;;;;;5065616;28;20248;-27
2023/03/12 12:03:48;;;;;;;4.80;4.30;;;;;;;;;;5070495;28;20213;-29
2023/03/12 12:06:18;;;;;;;4.97;4.47;;;;;;;;;;5071210;28;20670;-36
2023/03/12 12:08:52;;;;;;;5.57;4.10;;;;;;;;;;5064203;28;20212;-30
2023/03/12 12:11:22;;;;;;;5.60;4.27;;;;;;;;;;5066800;28;20205;-31
2023/03/12 12:14:00;;;;;;;4.40;4.00;;;;;;;;;;5063766;28;20204;-32
2023/03/12 12:16:34;;;;;;;4.63;3.83;;;;;;;;;;5064136;28;20225;-30
2023/03/12 12:19:08;;;;;;;5.77;3.60;;;;;;;;;;5070537;28;20293;-31
2023/03/12 12:21:41;;;;;;;4.87;3.23;;;;;;;;;;5068153;28;20372;-31
2023/03/12 12:24:16;;;;;;;3.90;3.20;;;;;;;;;;5064620;28;20224;-28
2023/03/12 12:26:54;;;;;;;5.67;2.70;;;;;;;;;;5072284;28;20298;-33
2023/03/12 12:29:25;;;;;;;3.77;2.67;;;;;;;;;;5058710;28;20206;-34
2023/03/12 12:31:55;;;;;;;3.37;2.43;;;;;;;;;;5066454;28;20220;-33
2023/03/12 12:34:37;;;;;;;2.60;1.87;;;;;;;;;;5073645;28;20215;-30
2023/03/12 12:37:21;;;;;;;1.67;1.30;;;;;;;;;;5056203;28;20229;-30
2023/03/12 12:39:51;;;;;;;2.07;0.73;;;;;;;;;;5064162;28;20212;-28
2023/03/12 12:42:21;;;;;;;3.00;0.77;;;;;;;;;;5069182;28;20205;-31
2023/03/12 12:44:49;;;;;;;0.83;0.60;;;;;;;;;;5065114;28;20201;-31
2023/03/12 12:47:19;;;;;;;0.90;0.40;;;;;;;;;;5060779;28;20286;-33
2023/03/12 12:49:49;;;;;;;5.47;1.10;;;;;;;;;;5072685;28;20209;-30
2023/03/12 12:52:19;;;;;;;1.67;0.87;;;;;;;;;;5074387;28;20210;-35
2023/03/12 12:54:52;;;;;;;0.63;0.63;;;;;;;;;;5062343;28;20201;-32
2023/03/12 12:57:22;;;;;;;0.70;0.70;;;;;;;;;;5063491;28;20225;-35
2023/03/12 12:59:56;;;;;;;0.77;0.40;;;;;;;;;;5062967;28;20228;-30
2023/03/12 13:02:25;;;;;;;1.97;0.97;;;;;;;;;;5068994;28;20212;-33
2023/03/12 13:04:55;;;;;;;2.43;0.70;;;;;;;;;;5069755;28;20209;-29
2023/03/12 13:07:34;;;;;;;1.13;0.60;;;;;;;;;;5064380;28;20240;-32
2023/03/12 13:10:05;;;;;;;1.90;0.80;;;;;;;;;;5061925;28;20211;-29
2023/03/12 13:12:33;;;;;;;2.93;0.77;;;;;;;;;;5069301;28;20217;-32
2023/03/12 13:15:01;;;;;;;0.80;0.80;;;;;;;;;;5064202;28;20201;-33
2023/03/12 13:17:30;;;;;;;1.07;0.97;;;;;;;;;;5069012;28;20255;-27
2023/03/12 13:20:09;;;;;;;3.63;0.70;;;;;;;;;;5069102;28;20244;-32
2023/03/12 13:22:54;;;;;;;3.07;0.90;;;;;;;;;;5065888;28;20216;-29
2023/03/12 13:25:26;;;;;;;3.97;0.80;;;;;;;;;;5064788;28;20216;-30
2023/03/12 13:27:58;;;;;;;2.40;1.00;;;;;;;;;;5063149;28;20224;-33
2023/03/12 13:30:44;;;;;;;2.20;1.27;;;;;;;;;;5057385;28;20205;-27
2023/03/12 13:33:13;;;;;;;2.63;1.20;;;;;;;;;;5068016;28;20417;-30
2023/03/12 13:35:40;;;;;;;2.23;1.00;;;;;;;;;;5069635;28;20202;-29
2023/03/12 13:38:12;;;;;;;4.60;1.00;;;;;;;;;;5060102;28;20239;-26
2023/03/12 13:40:52;;;;;;;4.77;1.30;;;;;;;;;;5067872;28;20204;-29
2023/03/12 13:43:32;;;;;;;2.67;1.10;;;;;;;;;;5066595;28;20250;-33
2023/03/12 13:46:01;;;;;;;5.83;0.90;;;;;;;;;;5062518;28;20651;-30
2023/03/12 13:48:28;;;;;;;2.30;1.33;;;;;;;;;;5068703;28;20205;-28
2023/03/12 13:50:57;;;;;;;4.40;3.07;;;;;;;;;;5066073;28;20206;-30
2023/03/12 13:53:27;;;;;;;2.87;1.10;;;;;;;;;;5054090;28;20201;-31
2023/03/12 13:56:01;;;;;;;4.53;1.13;;;;;;;;;;5069959;28;20208;-30
2023/03/12 13:58:29;;;;;;;2.27;1.10;;;;;;;;;;5059035;28;20292;-34
2023/03/12 14:00:57;;;;;;;2.17;0.87;;;;;;;;;;5058880;28;20205;-27
2023/03/12 14:03:26;;;;;;;1.43;0.87;;;;;;;;;;5069247;28;20204;-31
2023/03/12 14:05:55;;;;;;;3.47;1.10;;;;;;;;;;5069957;28;20209;-32
2023/03/12 14:08:33;;;;;;;3.47;1.17;;;;;;;;;;5054552;28;20251;-31
2023/03/12 14:11:04;;;;;;;3.90;0.90;;;;;;;;;;5072793;28;20205;-31
2023/03/12 14:13:40;;;;;;;3.50;0.90;;;;;;;;;;5069940;28;20201;-36
2023/03/12 14:16:11;;;;;;;1.27;0.90;;;;;;;;;;5068961;28;20309;-28
2023/03/12 14:18:39;;;;;;;5.70;1.03;;;;;;;;;;5073566;28;20201;-30
2023/03/12 14:21:08;;;;;;;2.17;0.90;;;;;;;;;;5071963;28;20224;-29
2023/03/12 14:23:38;;;;;;;1.50;0.70;;;;;;;;;;5065867;28;20205;-36
2023/03/12 14:26:06;;;;;;;3.83;1.30;;;;;;;;;;5064295;28;20205;-31
2023/03/12 14:28:38;;;;;;;2.73;0.73;;;;;;;;;;5066565;28;20258;-30
2023/03/12 14:31:06;;;;;;;1.67;0.83;;;;;;;;;;5069480;28;20201;-32
2023/03/12 14:33:35;;;;;;;2.30;1.23;;;;;;;;;;5072531;28;20212;-29
2023/03/12 14:36:05;;;;;;;0.63;0.50;;;;;;;;;;5072669;28;20208;-29
2023/03/12 14:38:35;;;;;;;1.83;0.60;;;;;;;;;;5063004;28;20527;-31
2023/03/12 14:41:05;;;;;;;1.40;0.70;;;;;;;;;;5067707;28;20209;-27
2023/03/12 14:43:33;;;;;;;1.93;0.43;;;;;;;;;;5062259;28;20204;-28
2023/03/12 14:46:01;;;;;;;0.37;0.37;;;;;;;;;;5067733;28;20217;-34
2023/03/12 14:48:30;;;;;;;1.33;0.60;;;;;;;;;;5065503;28;20211;-29
2023/03/12 14:50:58;;;;;;;1.57;0.70;;;;;;;;;;5062865;28;20400;-30
2023/03/12 14:53:28;;;;;;;3.73;0.80;;;;;;;;;;5054326;28;20206;-36
2023/03/12 14:55:59;;;;;;;1.43;0.93;;;;;;;;;;5068304;28;20209;-29
2023/03/12 14:58:28;;;;;;;4.57;1.33;;;;;;;;;;5070578;28;20208;-31